createdAt,value
2019-02-04T00:00:17.231Z,-1.30
2019-02-04T00:02:46.801Z,-1.30
2019-02-04T00:05:15.363Z,-1.30
2019-02-04T00:07:43.848Z,-1.30
2019-02-04T00:10:12.809Z,-1.40
2019-02-04T00:12:41.469Z,-1.50
2019-02-04T00:15:10.118Z,-1.50
2019-02-04T00:17:38.815Z,-1.50
2019-02-04T00:20:09.786Z,-1.60
2019-02-04T00:22:38.517Z,-1.80
2019-02-04T00:25:08.018Z,-2.00
2019-02-04T00:27:36.505Z,-2.00
2019-02-04T00:30:13.834Z,-2.00
2019-02-04T00:32:42.301Z,-2.10
2019-02-04T00:35:10.847Z,-2.10
2019-02-04T00:37:39.279Z,-2.10
2019-02-04T00:40:13.355Z,-2.00
2019-02-04T00:42:41.975Z,-1.90
2019-02-04T00:45:10.536Z,-1.70
2019-02-04T00:47:38.981Z,-1.70
2019-02-04T00:50:12.957Z,-1.70
2019-02-04T00:52:41.388Z,-1.80
2019-02-04T00:55:11.239Z,-1.70
2019-02-04T00:57:40.239Z,-1.60
2019-02-04T01:00:26.832Z,-1.60
2019-02-04T01:02:56.120Z,-1.70
2019-02-04T01:05:24.948Z,-1.80
2019-02-04T01:07:53.510Z,-2.00
2019-02-04T01:10:24.655Z,-2.10
2019-02-04T01:12:53.435Z,-2.20
2019-02-04T01:15:21.878Z,-2.30
2019-02-04T01:17:50.436Z,-2.30
2019-02-04T01:20:24.288Z,-2.30
2019-02-04T01:22:53.466Z,-2.30
2019-02-04T01:25:22.211Z,-2.40
2019-02-04T01:27:50.959Z,-2.40
2019-02-04T01:30:21.654Z,-2.40
2019-02-04T01:32:50.106Z,-2.40
2019-02-04T01:35:18.539Z,-2.40
2019-02-04T01:37:47.309Z,-2.40
2019-02-04T01:40:20.901Z,-2.40
2019-02-04T01:42:49.579Z,-2.30
2019-02-04T01:45:18.206Z,-2.10
2019-02-04T01:47:46.664Z,-2.10
2019-02-04T01:50:19.418Z,-2.10
2019-02-04T01:52:47.843Z,-2.10
2019-02-04T01:55:16.544Z,-2.10
2019-02-04T01:57:47.333Z,-2.20
2019-02-04T02:00:18.857Z,-2.20
2019-02-04T02:02:47.336Z,-2.20
2019-02-04T02:05:16.518Z,-2.20
2019-02-04T02:07:45.116Z,-2.30
2019-02-04T02:10:17.164Z,-2.30
2019-02-04T02:12:45.850Z,-2.40
2019-02-04T02:15:14.440Z,-2.30
2019-02-04T02:17:42.930Z,-2.20
2019-02-04T02:20:14.488Z,-2.20
2019-02-04T02:22:43.215Z,-2.20
2019-02-04T02:25:11.695Z,-2.20
2019-02-04T02:27:40.199Z,-2.20
2019-02-04T02:30:11.878Z,-2.10
2019-02-04T02:32:40.606Z,-2.10
2019-02-04T02:35:09.177Z,-2.00
2019-02-04T02:37:37.590Z,-2.00
2019-02-04T02:40:09.089Z,-2.00
2019-02-04T02:42:37.558Z,-2.00
2019-02-04T02:45:08.595Z,-2.00
2019-02-04T02:47:38.707Z,-2.00
2019-02-04T02:50:10.572Z,-2.00
2019-02-04T02:52:38.990Z,-2.10
2019-02-04T02:55:11.307Z,-2.10
2019-02-04T02:57:39.734Z,-2.20
2019-02-04T03:00:11.453Z,-2.20
2019-02-04T03:02:39.885Z,-2.20
2019-02-04T03:05:11.556Z,-2.30
2019-02-04T03:07:40.134Z,-2.30
2019-02-04T03:10:11.564Z,-2.30
2019-02-04T03:12:39.989Z,-2.40
2019-02-04T03:15:11.139Z,-2.40
2019-02-04T03:17:51.113Z,-2.40
2019-02-04T03:20:12.092Z,-2.40
2019-02-04T03:22:40.599Z,-2.30
2019-02-04T03:25:11.048Z,-2.20
2019-02-04T03:27:39.930Z,-2.10
2019-02-04T03:30:11.438Z,-2.10
2019-02-04T03:32:39.995Z,-2.10
2019-02-04T03:35:08.482Z,-2.00
2019-02-04T03:37:37.001Z,-1.90
2019-02-04T03:40:11.455Z,-1.90
2019-02-04T03:42:39.941Z,-1.90
2019-02-04T03:45:10.665Z,-1.80
2019-02-04T03:47:39.512Z,-1.80
2019-02-04T03:50:10.720Z,-1.80
2019-02-04T03:52:39.193Z,-1.70
2019-02-04T03:55:10.701Z,-1.70
2019-02-04T03:57:39.695Z,-1.60
2019-02-04T04:00:13.878Z,-1.70
2019-02-04T04:02:42.369Z,-1.60
2019-02-04T04:05:11.099Z,-1.60
2019-02-04T04:07:39.681Z,-1.70
2019-02-04T04:10:09.837Z,-1.70
2019-02-04T04:12:38.407Z,-1.70
2019-02-04T04:15:09.938Z,-1.70
2019-02-04T04:17:38.424Z,-1.90
2019-02-04T04:20:12.581Z,-1.90
2019-02-04T04:22:41.200Z,-2.00
2019-02-04T04:25:11.830Z,-1.90
2019-02-04T04:27:40.313Z,-1.90
2019-02-04T04:30:15.037Z,-1.90
2019-02-04T04:32:43.540Z,-1.90
2019-02-04T04:35:12.484Z,-1.90
2019-02-04T04:37:40.977Z,-1.90
2019-02-04T04:40:11.606Z,-1.90
2019-02-04T04:42:40.159Z,-1.90
2019-02-04T04:45:16.774Z,-1.90
2019-02-04T04:47:45.313Z,-1.90
2019-02-04T04:50:13.813Z,-1.90
2019-02-04T04:52:42.457Z,-2.00
2019-02-04T04:55:16.980Z,-2.00
2019-02-04T04:57:45.620Z,-2.10
2019-02-04T05:00:17.761Z,-2.10
2019-02-04T05:02:46.354Z,-2.20
2019-02-04T05:05:15.100Z,-2.10
2019-02-04T05:07:43.825Z,-2.20
2019-02-04T05:10:15.325Z,-2.20
2019-02-04T05:12:43.818Z,-2.20
2019-02-04T05:15:15.837Z,-2.20
2019-02-04T05:17:44.340Z,-2.30
2019-02-04T05:20:15.077Z,-2.20
2019-02-04T05:22:43.560Z,-2.30
2019-02-04T05:25:12.424Z,-2.40
2019-02-04T05:27:41.053Z,-2.40
2019-02-04T05:30:13.070Z,-2.40
2019-02-04T05:32:41.570Z,-2.30
2019-02-04T05:35:10.146Z,-2.30
2019-02-04T05:37:38.714Z,-2.30
2019-02-04T05:40:12.613Z,-2.40
2019-02-04T05:42:41.117Z,-2.40
2019-02-04T05:45:12.173Z,-2.50
2019-02-04T05:47:40.702Z,-2.60
2019-02-04T05:50:12.526Z,-2.60
2019-02-04T05:52:41.158Z,-2.50
2019-02-04T05:55:10.213Z,-2.60
2019-02-04T05:57:39.032Z,-2.70
2019-02-04T06:00:10.690Z,-2.80
2019-02-04T06:02:39.182Z,-2.90
2019-02-04T06:05:10.416Z,-3.10
2019-02-04T06:07:38.862Z,-3.00
2019-02-04T06:10:10.062Z,-2.90
2019-02-04T06:12:38.759Z,-3.00
2019-02-04T06:15:12.514Z,-3.00
2019-02-04T06:17:40.938Z,-3.10
2019-02-04T06:20:18.456Z,-3.20
2019-02-04T06:22:46.873Z,-3.30
2019-02-04T06:25:15.511Z,-3.30
2019-02-04T06:27:44.060Z,-3.20
2019-02-04T06:30:14.807Z,-3.20
2019-02-04T06:32:43.382Z,-3.10
2019-02-04T06:35:12.909Z,-3.00
2019-02-04T06:37:41.614Z,-3.00
2019-02-04T06:40:12.921Z,-3.00
2019-02-04T06:42:41.434Z,-3.10
2019-02-04T06:45:17.882Z,-3.20
2019-02-04T06:47:46.713Z,-3.20
2019-02-04T06:50:17.122Z,-3.30
2019-02-04T06:52:45.683Z,-3.30
2019-02-04T06:55:25.994Z,-3.30
2019-02-04T06:57:54.585Z,-3.20
2019-02-04T07:00:23.111Z,-3.20
2019-02-04T07:02:51.662Z,-3.20
2019-02-04T07:05:20.370Z,-3.20
2019-02-04T07:07:48.778Z,-3.20
2019-02-04T07:10:19.579Z,-3.20
2019-02-04T07:12:48.178Z,-3.20
2019-02-04T07:15:16.717Z,-3.10
2019-02-04T07:17:45.270Z,-3.10
2019-02-04T07:20:19.904Z,-3.00
2019-02-04T07:22:48.511Z,-2.90
2019-02-04T07:25:18.737Z,-2.90
2019-02-04T07:27:47.171Z,-2.80
2019-02-04T07:30:18.295Z,-2.70
2019-02-04T07:32:46.872Z,-2.60
2019-02-04T07:35:17.251Z,-2.60
2019-02-04T07:37:45.798Z,-2.50
2019-02-04T07:40:17.412Z,-2.50
2019-02-04T07:42:45.992Z,-2.50
2019-02-04T07:45:15.028Z,-2.60
2019-02-04T07:47:43.702Z,-2.60
2019-02-04T07:50:12.301Z,-2.60
2019-02-04T07:52:40.874Z,-2.40
2019-02-04T07:55:12.185Z,-2.30
2019-02-04T07:57:40.603Z,-2.30
2019-02-04T08:00:17.342Z,-2.20
2019-02-04T08:02:46.333Z,-2.00
2019-02-04T08:05:14.769Z,-1.90
2019-02-04T08:07:43.198Z,-1.90
2019-02-04T08:10:14.021Z,-1.80
2019-02-04T08:12:42.545Z,-1.80
2019-02-04T08:15:25.747Z,-1.70
2019-02-04T08:17:54.900Z,-1.70
2019-02-04T08:20:23.385Z,-1.60
2019-02-04T08:22:51.799Z,-1.60
2019-02-04T08:25:20.389Z,-1.60
2019-02-04T08:27:48.809Z,-1.60
2019-02-04T08:30:23.671Z,-1.50
2019-02-04T08:32:52.090Z,-1.40
2019-02-04T08:35:20.574Z,-1.40
2019-02-04T08:37:49.077Z,-1.30
2019-02-04T08:40:18.730Z,-1.30
2019-02-04T08:42:47.240Z,-1.20
2019-02-04T08:45:16.388Z,-1.20
2019-02-04T08:47:45.112Z,-1.10
2019-02-04T08:50:17.012Z,-1.00
2019-02-04T08:52:45.567Z,-1.00
2019-02-04T08:55:14.157Z,-0.90
2019-02-04T08:57:42.668Z,-0.90
2019-02-04T09:00:14.764Z,-0.80
2019-02-04T09:02:43.175Z,-0.80
2019-02-04T09:05:14.223Z,-0.70
2019-02-04T09:07:43.251Z,-0.70
2019-02-04T09:10:15.168Z,-0.60
2019-02-04T09:12:43.573Z,-0.60
2019-02-04T09:15:16.342Z,-0.50
2019-02-04T09:17:44.731Z,-0.40
2019-02-04T09:20:15.830Z,-0.40
2019-02-04T09:22:44.770Z,-0.40
2019-02-04T09:25:15.532Z,-0.40
2019-02-04T09:27:44.018Z,-0.40
2019-02-04T09:30:20.987Z,-0.40
2019-02-04T09:32:49.466Z,-0.40
2019-02-04T09:35:19.693Z,-0.40
2019-02-04T09:37:48.422Z,-0.40
2019-02-04T09:40:25.147Z,-0.40
2019-02-04T09:42:53.558Z,-0.40
2019-02-04T09:45:25.230Z,-0.30
2019-02-04T09:47:52.113Z,-0.30
2019-02-04T09:50:23.313Z,-0.20
2019-02-04T09:52:51.883Z,-0.20
2019-02-04T09:55:25.707Z,-0.10
2019-02-04T09:57:54.306Z,0.00
2019-02-04T10:00:25.149Z,0.10
2019-02-04T10:02:53.648Z,0.10
2019-02-04T10:05:22.839Z,0.10
2019-02-04T10:07:51.302Z,0.20
2019-02-04T10:10:22.753Z,0.20
2019-02-04T10:12:52.607Z,0.30
2019-02-04T10:15:32.925Z,0.40
2019-02-04T10:18:01.452Z,0.40
2019-02-04T10:20:34.115Z,0.40
2019-02-04T10:23:00.252Z,0.50
2019-02-04T10:25:31.028Z,0.50
2019-02-04T10:27:59.919Z,0.50
2019-02-04T10:30:28.358Z,0.50
2019-02-04T10:32:56.889Z,0.50
2019-02-04T10:35:25.727Z,0.50
2019-02-04T10:37:54.172Z,0.60
2019-02-04T10:40:30.257Z,0.60
2019-02-04T10:42:58.917Z,0.60
2019-02-04T10:45:27.506Z,0.70
2019-02-04T10:47:56.314Z,0.70
2019-02-04T10:50:28.162Z,0.70
2019-02-04T10:52:56.959Z,0.70
2019-02-04T10:55:25.905Z,0.70
2019-02-04T10:57:54.573Z,0.70
2019-02-04T11:00:29.311Z,0.80
2019-02-04T11:02:58.221Z,0.80
2019-02-04T11:05:29.386Z,0.90
2019-02-04T11:07:57.881Z,1.00
2019-02-04T11:10:30.222Z,1.00
2019-02-04T11:12:58.882Z,1.10
2019-02-04T11:15:27.344Z,1.10
2019-02-04T11:17:56.119Z,1.10
2019-02-04T11:20:27.440Z,1.10
2019-02-04T11:22:55.929Z,1.20
2019-02-04T11:25:24.447Z,1.30
2019-02-04T11:27:52.928Z,1.40
2019-02-04T11:30:42.713Z,1.30
2019-02-04T11:33:11.265Z,1.30
2019-02-04T11:35:39.913Z,1.30
2019-02-04T11:38:08.964Z,1.30
2019-02-04T11:40:39.420Z,1.40
2019-02-04T11:43:08.853Z,1.50
2019-02-04T11:45:37.645Z,1.50
2019-02-04T11:48:08.708Z,1.40
2019-02-04T11:50:37.219Z,1.60
2019-02-04T11:53:05.782Z,1.80
2019-02-04T11:55:35.169Z,1.80
2019-02-04T11:58:04.236Z,1.70
2019-02-04T12:00:33.378Z,1.80
2019-02-04T12:03:03.933Z,1.70
2019-02-04T12:05:32.354Z,1.80
2019-02-04T12:08:00.775Z,1.60
2019-02-04T12:10:42.886Z,1.60
2019-02-04T12:13:11.069Z,1.60
2019-02-04T12:15:40.141Z,1.60
2019-02-04T12:18:08.713Z,1.40
2019-02-04T12:20:39.872Z,1.50
2019-02-04T12:23:07.360Z,1.60
2019-02-04T12:25:37.129Z,1.60
2019-02-04T12:28:05.778Z,1.40
2019-02-04T12:30:42.466Z,1.40
2019-02-04T12:33:13.591Z,1.50
2019-02-04T12:35:42.038Z,1.60
2019-02-04T12:38:10.586Z,1.70
2019-02-04T12:40:39.210Z,1.70
2019-02-04T12:43:07.673Z,1.80
2019-02-04T12:45:38.028Z,2.00
2019-02-04T12:48:06.677Z,1.90
2019-02-04T12:50:35.443Z,2.00
2019-02-04T12:53:04.724Z,2.20
2019-02-04T12:55:33.610Z,2.20
2019-02-04T12:58:02.014Z,2.20
2019-02-04T13:00:31.700Z,2.10
2019-02-04T13:03:00.127Z,2.20
2019-02-04T13:05:36.888Z,2.30
2019-02-04T13:08:07.344Z,2.40
2019-02-04T13:10:35.779Z,2.40
2019-02-04T13:13:05.134Z,2.50
2019-02-04T13:15:33.541Z,2.50
2019-02-04T13:18:01.954Z,2.60
2019-02-04T13:20:30.435Z,2.70
2019-02-04T13:22:59.133Z,2.60
2019-02-04T13:25:29.455Z,2.30
2019-02-04T13:27:58.174Z,2.30
2019-02-04T13:30:30.528Z,2.10
2019-02-04T13:32:59.082Z,2.00
2019-02-04T13:35:30.577Z,2.00
2019-02-04T13:37:57.821Z,2.00
2019-02-04T13:40:29.306Z,1.60
2019-02-04T13:42:58.005Z,1.50
2019-02-04T13:45:27.484Z,1.50
2019-02-04T13:47:56.033Z,1.50
2019-02-04T13:50:24.523Z,1.40
2019-02-04T13:52:53.527Z,1.30
2019-02-04T13:55:33.373Z,1.20
2019-02-04T13:58:01.834Z,1.10
2019-02-04T14:00:30.558Z,1.00
2019-02-04T14:03:00.721Z,0.90
2019-02-04T14:05:31.514Z,1.10
2019-02-04T14:08:00.474Z,1.10
2019-02-04T14:10:31.793Z,1.10
2019-02-04T14:13:00.227Z,1.10
2019-02-04T14:15:29.308Z,1.20
2019-02-04T14:17:58.012Z,1.30
2019-02-04T14:20:27.057Z,1.20
2019-02-04T14:22:55.871Z,1.10
2019-02-04T14:25:24.591Z,1.20
2019-02-04T14:27:54.019Z,1.30
2019-02-04T14:30:36.818Z,1.40
2019-02-04T14:33:06.111Z,1.30
2019-02-04T14:35:34.836Z,1.10
2019-02-04T14:38:04.581Z,1.00
2019-02-04T14:40:33.001Z,0.90
2019-02-04T14:43:06.981Z,0.60
2019-02-04T14:45:44.211Z,0.50
2019-02-04T14:48:15.697Z,0.40
2019-02-04T14:50:49.825Z,0.40
2019-02-04T14:53:30.190Z,0.40
2019-02-04T14:56:10.513Z,0.30
2019-02-04T14:58:44.785Z,0.30
2019-02-04T15:01:27.771Z,0.20
2019-02-04T15:04:11.091Z,0.30
2019-02-04T15:06:45.253Z,0.30
2019-02-04T15:09:33.137Z,0.30
2019-02-04T15:12:26.594Z,0.30
2019-02-04T15:15:12.550Z,0.20
2019-02-04T15:17:44.148Z,0.20
2019-02-04T15:20:15.626Z,0.20
2019-02-04T15:23:05.058Z,0.10
2019-02-04T15:25:52.832Z,0.00
2019-02-04T15:28:35.909Z,0.00
2019-02-04T15:31:12.322Z,0.00
2019-02-04T15:33:46.634Z,0.00
2019-02-04T15:36:36.353Z,0.00
2019-02-04T15:39:22.466Z,0.00
2019-02-04T15:42:02.788Z,0.00
2019-02-04T15:44:43.115Z,-0.10
2019-02-04T15:47:23.274Z,-0.10
2019-02-04T15:49:57.341Z,-0.20
2019-02-04T15:52:25.834Z,-0.20
2019-02-04T15:54:54.260Z,-0.30
2019-02-04T15:57:22.855Z,-0.30
2019-02-04T15:59:51.343Z,-0.30
2019-02-04T16:02:19.756Z,-0.40
2019-02-04T16:04:48.165Z,-0.40
2019-02-04T16:07:16.589Z,-0.40
2019-02-04T16:09:45.030Z,-0.40
2019-02-04T16:12:13.717Z,-0.40
2019-02-04T16:14:42.396Z,-0.40
2019-02-04T16:17:11.610Z,-0.40
2019-02-04T16:19:40.089Z,-0.50
2019-02-04T16:22:08.583Z,-0.50
2019-02-04T16:24:37.132Z,-0.60
2019-02-04T16:27:05.690Z,-0.50
2019-02-04T16:29:34.125Z,-0.50
2019-02-04T16:32:02.618Z,-0.50
2019-02-04T16:34:31.048Z,-0.60
2019-02-04T16:36:59.491Z,-0.60
2019-02-04T16:39:27.932Z,-0.60
2019-02-04T16:41:56.345Z,-0.60
2019-02-04T16:44:25.142Z,-0.70
2019-02-04T16:46:54.692Z,-0.60
2019-02-04T16:49:23.250Z,-0.70
2019-02-04T16:51:51.663Z,-0.70
2019-02-04T16:54:20.144Z,-0.60
2019-02-04T16:56:48.561Z,-0.60
2019-02-04T16:59:17.361Z,-0.60
2019-02-04T17:01:45.781Z,-0.70
2019-02-04T17:04:14.197Z,-0.70
2019-02-04T17:06:42.785Z,-0.70
2019-02-04T17:09:12.204Z,-0.70
2019-02-04T17:11:40.630Z,-0.70
2019-02-04T17:14:09.054Z,-0.70
2019-02-04T17:16:37.653Z,-0.70
2019-02-04T17:19:06.189Z,-0.60
2019-02-04T17:21:34.605Z,-0.70
2019-02-04T17:24:03.090Z,-0.70
2019-02-04T17:26:31.510Z,-0.70
2019-02-04T17:28:59.928Z,-0.80
2019-02-04T17:31:28.747Z,-0.70
2019-02-04T17:33:57.168Z,-0.70
2019-02-04T17:36:25.652Z,-0.70
2019-02-04T17:38:54.098Z,-0.70
2019-02-04T17:41:22.577Z,-0.80
2019-02-04T17:43:50.989Z,-0.80
2019-02-04T17:46:19.409Z,-0.80
2019-02-04T17:48:47.822Z,-0.80
2019-02-04T17:51:16.334Z,-0.80
2019-02-04T17:53:44.754Z,-0.80
2019-02-04T17:56:13.244Z,-0.80
2019-02-04T17:58:41.704Z,-0.80
2019-02-04T18:01:10.182Z,-0.90
2019-02-04T18:03:38.974Z,-0.90
2019-02-04T18:06:07.401Z,-0.90
2019-02-04T18:08:35.809Z,-0.90
2019-02-04T18:11:04.369Z,-0.90
2019-02-04T18:13:32.821Z,-0.90
2019-02-04T18:16:01.240Z,-0.80
2019-02-04T18:18:30.075Z,-0.90
2019-02-04T18:20:58.508Z,-0.80
2019-02-04T18:23:26.926Z,-0.80
2019-02-04T18:25:55.343Z,-0.80
2019-02-04T18:28:23.837Z,-0.80
2019-02-04T18:30:52.301Z,-0.80
2019-02-04T18:33:20.782Z,-0.80
2019-02-04T18:35:49.265Z,-0.90
2019-02-04T18:38:17.706Z,-0.90
2019-02-04T18:40:46.516Z,-0.90
2019-02-04T18:43:14.943Z,-0.90
2019-02-04T18:45:43.434Z,-0.80
2019-02-04T18:48:11.949Z,-0.70
2019-02-04T18:50:40.743Z,-0.70
2019-02-04T18:53:09.161Z,-0.70
2019-02-04T18:55:37.573Z,-0.70
2019-02-04T18:58:06.007Z,-0.70
2019-02-04T19:00:34.522Z,-0.70
2019-02-04T19:03:16.577Z,-0.70
2019-02-04T19:05:34.726Z,-0.70
2019-02-04T19:08:03.214Z,-0.70
2019-02-04T19:10:31.666Z,-0.70
2019-02-04T19:13:00.129Z,-0.70
2019-02-04T19:15:29.297Z,-0.70
2019-02-04T19:18:04.145Z,-0.60
2019-02-04T19:20:33.297Z,-0.60
2019-02-04T19:23:01.730Z,-0.50
2019-02-04T19:25:30.379Z,-0.50
2019-02-04T19:27:58.920Z,-0.50
2019-02-04T19:30:47.849Z,-0.60
2019-02-04T19:33:16.279Z,-0.60
2019-02-04T19:35:44.736Z,-0.60
2019-02-04T19:38:13.220Z,-0.60
2019-02-04T19:40:41.647Z,-0.60
2019-02-04T19:43:10.065Z,-0.60
2019-02-04T19:45:38.481Z,-0.60
2019-02-04T19:48:06.993Z,-0.60
2019-02-04T19:50:37.042Z,-0.60
2019-02-04T19:53:05.709Z,-0.60
2019-02-04T19:55:34.182Z,-0.60
2019-02-04T19:58:02.604Z,-0.60
2019-02-04T20:00:31.409Z,-0.60
2019-02-04T20:02:59.825Z,-0.60
2019-02-04T20:05:29.958Z,-0.60
2019-02-04T20:07:58.537Z,-0.60
2019-02-04T20:10:29.849Z,-0.60
2019-02-04T20:12:58.266Z,-0.50
2019-02-04T20:15:28.715Z,-0.50
2019-02-04T20:17:57.249Z,-0.50
2019-02-04T20:20:26.404Z,-0.60
2019-02-04T20:22:55.051Z,-0.60
2019-02-04T20:25:31.246Z,-0.60
2019-02-04T20:27:59.945Z,-0.60
2019-02-04T20:30:45.798Z,-0.70
2019-02-04T20:33:10.755Z,-0.70
2019-02-04T20:35:39.322Z,-0.60
2019-02-04T20:38:08.786Z,-0.60
2019-02-04T20:40:37.360Z,-0.60
2019-02-04T20:43:07.107Z,-0.60
2019-02-04T20:45:35.644Z,-0.60
2019-02-04T20:48:05.202Z,-0.50
2019-02-04T20:50:42.017Z,-0.50
2019-02-04T20:53:10.480Z,-0.50
2019-02-04T20:55:39.368Z,-0.50
2019-02-04T20:58:07.893Z,-0.50
2019-02-04T21:00:36.314Z,-0.60
2019-02-04T21:03:05.073Z,-0.60
2019-02-04T21:05:33.570Z,-0.60
2019-02-04T21:08:02.065Z,-0.60
2019-02-04T21:10:30.914Z,-0.60
2019-02-04T21:12:59.503Z,-0.60
2019-02-04T21:15:28.149Z,-0.60
2019-02-04T21:17:56.570Z,-0.60
2019-02-04T21:20:29.233Z,-0.50
2019-02-04T21:22:57.723Z,-0.50
2019-02-04T21:25:26.177Z,-0.50
2019-02-04T21:27:54.702Z,-0.50
2019-02-04T21:30:25.058Z,-0.50
2019-02-04T21:32:53.479Z,-0.50
2019-02-04T21:35:22.124Z,-0.50
2019-02-04T21:37:50.585Z,-0.50
2019-02-04T21:40:19.738Z,-0.40
2019-02-04T21:42:48.605Z,-0.40
2019-02-04T21:45:19.261Z,-0.40
2019-02-04T21:47:47.927Z,-0.50
2019-02-04T21:50:18.846Z,-0.50
2019-02-04T21:52:47.333Z,-0.50
2019-02-04T21:55:16.091Z,-0.50
2019-02-04T21:57:44.986Z,-0.50
2019-02-04T22:00:16.482Z,-0.40
2019-02-04T22:02:44.897Z,-0.50
2019-02-04T22:05:16.133Z,-0.50
2019-02-04T22:07:44.546Z,-0.50
2019-02-04T22:10:18.126Z,-0.50
2019-02-04T22:12:46.853Z,-0.40
2019-02-04T22:15:15.369Z,-0.40
2019-02-04T22:17:44.911Z,-0.40
2019-02-04T22:20:18.019Z,-0.40
2019-02-04T22:22:46.434Z,-0.40
2019-02-04T22:25:19.690Z,-0.40
2019-02-04T22:27:48.665Z,-0.40
2019-02-04T22:30:18.965Z,-0.40
2019-02-04T22:32:47.391Z,-0.40
2019-02-04T22:35:15.870Z,-0.40
2019-02-04T22:37:44.412Z,-0.40
2019-02-04T22:40:21.221Z,-0.40
2019-02-04T22:42:50.033Z,-0.40
2019-02-04T22:45:19.147Z,-0.30
2019-02-04T22:47:47.557Z,-0.30
2019-02-04T22:50:27.303Z,-0.30
2019-02-04T22:52:55.882Z,-0.30
2019-02-04T22:55:31.680Z,-0.30
2019-02-04T22:57:54.698Z,-0.30
2019-02-04T23:00:48.961Z,-0.30
2019-02-04T23:03:20.049Z,-0.40
2019-02-04T23:05:48.546Z,-0.50
2019-02-04T23:08:16.981Z,-0.50
2019-02-04T23:10:45.421Z,-0.50
2019-02-04T23:13:13.861Z,-0.50
2019-02-04T23:15:42.418Z,-0.60
2019-02-04T23:18:11.301Z,-0.60
2019-02-04T23:20:39.852Z,-0.60
2019-02-04T23:23:08.323Z,-0.60
2019-02-04T23:25:43.527Z,-0.60
2019-02-04T23:28:06.892Z,-0.60
2019-02-04T23:30:35.349Z,-0.60
2019-02-04T23:33:04.725Z,-0.60
2019-02-04T23:35:33.204Z,-0.60
2019-02-04T23:38:01.617Z,-0.60
2019-02-04T23:40:30.085Z,-0.60
2019-02-04T23:42:58.492Z,-0.60
2019-02-04T23:45:26.922Z,-0.60
2019-02-04T23:47:55.438Z,-0.60
2019-02-04T23:50:24.042Z,-0.70
2019-02-04T23:52:52.515Z,-0.60
2019-02-04T23:55:20.987Z,-0.60
2019-02-04T23:57:49.421Z,-0.70
